Aérodrome :
LOGIN :

S'inscrire | Disclaimer

   EN    FR    IT 

 










Légende :    VFR   VFR Marginal   IFR   IFR Intensif   IFR Très Intensif
Visi : 
Plafond : 
>= 8 km
>= 3000ft
5 à 8 km
1000 à 3000 ft
1500m à 5 km
500 à 1000 ft
800 à 1500m
200 à 500 ft
< 800m
< 200 ft
Symboles :   Orages  Brouillard  Fortes neiges  Fortes précipitations  Vent > 20 kt
SIGMETs :   Divers  Orages  Givrage  Turbulence  Onde Orograph.  Cendres Volcan.






- Altitude de l'aérodrome : 146 ft
- Code IATA : RKE


EKRK - Roskilde Tune

DERNIER METAR :
  • 031320Z AUTO 28009KT 9999 OVC033/// 15/10 Q1013

METARs EXPIRÉS :
  • 031250Z AUTO 26007KT 220V280 9999 OVC040/// 17/08 Q1013
  • 031220Z AUTO 28006KT 250V320 9999 BKN042/// BKN093/// 17/08 Q1013
  • 031150Z AUTO 27008KT 240V310 9999 BKN045/// BKN092/// 17/08 Q1013
  • 031120Z AUTO 27006KT 220V320 9999 BKN041/// BKN092/// 17/07 Q1013
  • 031050Z AUTO 27007KT 230V300 9999 SCT040/// BKN046/// 17/07 Q1013

TAF TAF EKRK
Valide du 03 à 12h jusqu'au 03 à 21h UTC


031121Z 0312/0321 27010KT 9999 SCT040
TEMPO 0313/0315 4000 SHRA SCT030TCU
BECMG 0317/0319 21010KT
TEMPO 0319/0321 RA



MET'MAP, la Météo Aéronautique d'un coup d'oeil ! - Copyright ORBIFLY Décembre 2007 - Disclaimer

ORBIFLY MET'MAP TEAM :

Programmation & Développement : Alexandra Zaïnal
Sur une idée originale de : Baudouin d'Aumeries
Assistance à la programmation : Marc-Olivier Méhu
Soutien technique & logistique : Manuel Goepfert

Contact : metmap@orbifly.com




SOURCES & CREDITS :

   NOAA